FDX1776 KSEA-KLAX
Flight info
| Callsign | FDX1776 |
|---|---|
| Flight time | 2h 7m |
| Altitude | 33000 |
| Route | OZWLD1 OZWLD KPOWW SEA152033 JINMO Q7 JAGWA BURGL IRNMN2 |
| Aircraft | B77L/H-SDE1E2E3FGHIJ2J3J4J5M1RWXY/LB1D1 |
Departure
| Time | 2026-04-26 20:33 |
|---|---|
| Airport | Seattle–Tacoma International Airport (KSEA) |
Arrival
| Time | 2026-04-26 22:40 |
|---|---|
| Airport | Los Angeles International Airport (KLAX) |
| Time | Latitude | Longitude | Altitude | Speed | Heading |
|---|---|---|---|---|---|
| 2026-04-26 20:05 | 47.46104 | -122.30154 | 457 ft | 0 kts | 180° |
| 2026-04-26 20:20 | 47.46106 | -122.30154 | 457 ft | 1 kts | 180° |
| 2026-04-26 20:20 | 47.46121 | -122.30154 | 456 ft | 2 kts | 180° |
| 2026-04-26 20:20 | 47.46137 | -122.30154 | 456 ft | 2 kts | 188° |
| 2026-04-26 20:20 | 47.46151 | -122.30148 | 455 ft | 2 kts | 207° |
| 2026-04-26 20:21 | 47.46164 | -122.30135 | 454 ft | 2 kts | 223° |
| 2026-04-26 20:21 | 47.46173 | -122.30119 | 453 ft | 2 kts | 239° |
| 2026-04-26 20:21 | 47.46180 | -122.30100 | 452 ft | 2 kts | 255° |
| 2026-04-26 20:21 | 47.46183 | -122.30079 | 452 ft | 1 kts | 269° |
| 2026-04-26 20:22 | 47.46183 | -122.30070 | 452 ft | 0 kts | 271° |
| 2026-04-26 20:25 | 47.46183 | -122.30074 | 452 ft | 1 kts | 270° |
| 2026-04-26 20:25 | 47.46183 | -122.30083 | 452 ft | 3 kts | 270° |
| 2026-04-26 20:25 | 47.46184 | -122.30230 | 452 ft | 14 kts | 270° |
| 2026-04-26 20:25 | 47.46184 | -122.30399 | 449 ft | 17 kts | 271° |
| 2026-04-26 20:26 | 47.46182 | -122.30563 | 443 ft | 13 kts | 259° |
| 2026-04-26 20:26 | 47.46109 | -122.30616 | 444 ft | 11 kts | 182° |
| 2026-04-26 20:26 | 47.46019 | -122.30617 | 447 ft | 14 kts | 181° |
| 2026-04-26 20:26 | 47.45905 | -122.30618 | 448 ft | 18 kts | 181° |
| 2026-04-26 20:27 | 47.45757 | -122.30621 | 446 ft | 24 kts | 181° |
| 2026-04-26 20:27 | 47.45581 | -122.30621 | 442 ft | 25 kts | 180° |
| 2026-04-26 20:27 | 47.45405 | -122.30627 | 435 ft | 25 kts | 177° |
| 2026-04-26 20:27 | 47.45224 | -122.30624 | 427 ft | 26 kts | 181° |
| 2026-04-26 20:28 | 47.45038 | -122.30626 | 418 ft | 27 kts | 180° |
| 2026-04-26 20:28 | 47.44844 | -122.30627 | 409 ft | 28 kts | 181° |
| 2026-04-26 20:28 | 47.44767 | -122.30628 | 407 ft | 27 kts | 181° |
| 2026-04-26 20:28 | 47.44574 | -122.30635 | 400 ft | 27 kts | 180° |
| 2026-04-26 20:29 | 47.44385 | -122.30634 | 395 ft | 26 kts | 182° |
| 2026-04-26 20:29 | 47.44202 | -122.30636 | 390 ft | 24 kts | 180° |
| 2026-04-26 20:29 | 47.44043 | -122.30637 | 385 ft | 22 kts | 181° |
| 2026-04-26 20:29 | 47.43882 | -122.30638 | 378 ft | 23 kts | 180° |
| 2026-04-26 20:30 | 47.43719 | -122.30638 | 370 ft | 22 kts | 177° |
| 2026-04-26 20:30 | 47.43565 | -122.30572 | 362 ft | 23 kts | 163° |
| 2026-04-26 20:30 | 47.43396 | -122.30556 | 350 ft | 26 kts | 181° |
| 2026-04-26 20:30 | 47.43227 | -122.30557 | 339 ft | 15 kts | 176° |
| 2026-04-26 20:31 | 47.43157 | -122.30620 | 331 ft | 0 kts | 251° |
| 2026-04-26 20:31 | 47.43153 | -122.30644 | 330 ft | 4 kts | 260° |
| 2026-04-26 20:31 | 47.43150 | -122.30711 | 328 ft | 7 kts | 268° |
| 2026-04-26 20:31 | 47.43159 | -122.30788 | 327 ft | 6 kts | 314° |
| 2026-04-26 20:32 | 47.43188 | -122.30801 | 329 ft | 0 kts | 0° |
| 2026-04-26 20:32 | 47.43335 | -122.30798 | 341 ft | 59 kts | 0° |
| 2026-04-26 20:32 | 47.44038 | -122.30796 | 382 ft | 141 kts | 1° |
| 2026-04-26 20:33 | 47.45260 | -122.30778 | 606 ft | 196 kts | 1° |
| 2026-04-26 20:33 | 47.46663 | -122.30804 | 1567 ft | 209 kts | 358° |
| 2026-04-26 20:33 | 47.48013 | -122.30829 | 2609 ft | 195 kts | 360° |
| 2026-04-26 20:33 | 47.49437 | -122.30772 | 3022 ft | 212 kts | 1° |
| 2026-04-26 20:34 | 47.50970 | -122.30712 | 3484 ft | 226 kts | 357° |
| 2026-04-26 20:34 | 47.52579 | -122.30839 | 4023 ft | 239 kts | 356° |
| 2026-04-26 20:34 | 47.54256 | -122.30953 | 4708 ft | 247 kts | 355° |
| 2026-04-26 20:34 | 47.55920 | -122.31567 | 5323 ft | 257 kts | 333° |
| 2026-04-26 20:35 | 47.57470 | -122.32970 | 6158 ft | 262 kts | 327° |
| 2026-04-26 20:35 | 47.58940 | -122.34463 | 7060 ft | 262 kts | 326° |
| 2026-04-26 20:35 | 47.60275 | -122.36301 | 7818 ft | 269 kts | 306° |
| 2026-04-26 20:35 | 47.61030 | -122.38843 | 8586 ft | 276 kts | 286° |
| 2026-04-26 20:36 | 47.61404 | -122.41618 | 9383 ft | 279 kts | 283° |
| 2026-04-26 20:36 | 47.61625 | -122.44502 | 10121 ft | 286 kts | 271° |
| 2026-04-26 20:36 | 47.61350 | -122.47480 | 10559 ft | 304 kts | 258° |
| 2026-04-26 20:36 | 47.60559 | -122.50485 | 10920 ft | 325 kts | 244° |
| 2026-04-26 20:37 | 47.59206 | -122.53245 | 11290 ft | 345 kts | 227° |
| 2026-04-26 20:37 | 47.57256 | -122.55485 | 11645 ft | 364 kts | 217° |
| 2026-04-26 20:37 | 47.55232 | -122.57838 | 12063 ft | 379 kts | 223° |
| 2026-04-26 20:37 | 47.53213 | -122.60457 | 12518 ft | 394 kts | 220° |
| 2026-04-26 20:38 | 47.50903 | -122.62631 | 13212 ft | 403 kts | 208° |
| 2026-04-26 20:38 | 47.48240 | -122.64126 | 14007 ft | 409 kts | 195° |
| 2026-04-26 20:38 | 47.45438 | -122.64786 | 14750 ft | 414 kts | 183° |
| 2026-04-26 20:38 | 47.42559 | -122.64587 | 15435 ft | 420 kts | 171° |
| 2026-04-26 20:39 | 47.39740 | -122.63497 | 16108 ft | 424 kts | 158° |
| 2026-04-26 20:39 | 47.38112 | -122.62402 | 16536 ft | 425 kts | 150° |
| 2026-04-26 20:39 | 47.34855 | -122.58830 | 17511 ft | 427 kts | 132° |
| 2026-04-26 20:39 | 47.32997 | -122.55420 | 18205 ft | 427 kts | 119° |
| 2026-04-26 20:40 | 47.31535 | -122.51639 | 18869 ft | 431 kts | 118° |
| 2026-04-26 20:40 | 47.29744 | -122.48073 | 19530 ft | 440 kts | 129° |
| 2026-04-26 20:40 | 47.27550 | -122.44939 | 20272 ft | 446 kts | 136° |
| 2026-04-26 20:40 | 47.25150 | -122.41941 | 20935 ft | 451 kts | 138° |
| 2026-04-26 20:41 | 47.22634 | -122.39231 | 21519 ft | 459 kts | 143° |
| 2026-04-26 20:41 | 47.19892 | -122.36784 | 22101 ft | 466 kts | 149° |
| 2026-04-26 20:41 | 47.17003 | -122.34582 | 22675 ft | 472 kts | 151° |
| 2026-04-26 20:41 | 47.14040 | -122.32443 | 23262 ft | 476 kts | 152° |
| 2026-04-26 20:42 | 47.11037 | -122.30338 | 23791 ft | 482 kts | 152° |
| 2026-04-26 20:42 | 47.08011 | -122.28264 | 24382 ft | 485 kts | 152° |
| 2026-04-26 20:42 | 47.04918 | -122.26174 | 24964 ft | 489 kts | 153° |
| 2026-04-26 20:42 | 47.01821 | -122.24107 | 25468 ft | 494 kts | 153° |
| 2026-04-26 20:43 | 46.98646 | -122.22209 | 25920 ft | 502 kts | 159° |
| 2026-04-26 20:43 | 46.95227 | -122.20972 | 26458 ft | 508 kts | 169° |
| 2026-04-26 20:43 | 46.91713 | -122.20340 | 27002 ft | 512 kts | 173° |
| 2026-04-26 20:43 | 46.88161 | -122.19822 | 27464 ft | 517 kts | 173° |
| 2026-04-26 20:44 | 46.84585 | -122.19309 | 27857 ft | 523 kts | 173° |
| 2026-04-26 20:44 | 46.80964 | -122.18791 | 28322 ft | 527 kts | 173° |
| 2026-04-26 20:44 | 46.77308 | -122.18267 | 28803 ft | 531 kts | 173° |
| 2026-04-26 20:44 | 46.73597 | -122.17735 | 29300 ft | 535 kts | 173° |
| 2026-04-26 20:45 | 46.69914 | -122.17207 | 29996 ft | 533 kts | 172° |
| 2026-04-26 20:45 | 46.66252 | -122.16682 | 30724 ft | 531 kts | 173° |
| 2026-04-26 20:45 | 46.62603 | -122.16161 | 31278 ft | 531 kts | 172° |
| 2026-04-26 20:45 | 46.58940 | -122.15636 | 31721 ft | 533 kts | 173° |
| 2026-04-26 20:46 | 46.55247 | -122.15108 | 32208 ft | 533 kts | 173° |
| 2026-04-26 20:46 | 46.51534 | -122.14578 | 32725 ft | 532 kts | 172° |
| 2026-04-26 20:46 | 46.47867 | -122.14054 | 32851 ft | 535 kts | 173° |
| 2026-04-26 20:47 | 46.40526 | -122.13010 | 32861 ft | 528 kts | 173° |
| 2026-04-26 20:47 | 46.33209 | -122.11769 | 32880 ft | 531 kts | 168° |
| 2026-04-26 20:48 | 46.25997 | -122.09969 | 32853 ft | 525 kts | 168° |
| 2026-04-26 20:48 | 46.18811 | -122.08195 | 32865 ft | 527 kts | 168° |
| 2026-04-26 20:49 | 46.11590 | -122.06441 | 32850 ft | 526 kts | 168° |
| 2026-04-26 20:49 | 46.04341 | -122.04697 | 32862 ft | 526 kts | 168° |
| 2026-04-26 20:50 | 45.97149 | -122.02979 | 32862 ft | 524 kts | 169° |
| 2026-04-26 20:50 | 45.89962 | -122.01270 | 32865 ft | 523 kts | 169° |
| 2026-04-26 20:51 | 45.82746 | -121.99561 | 32845 ft | 523 kts | 169° |
| 2026-04-26 20:51 | 45.75586 | -121.97871 | 32846 ft | 521 kts | 169° |
| 2026-04-26 20:52 | 45.68486 | -121.96201 | 32851 ft | 521 kts | 169° |
| 2026-04-26 20:52 | 45.61329 | -121.94522 | 32860 ft | 518 kts | 169° |
| 2026-04-26 20:53 | 45.54212 | -121.92857 | 32860 ft | 517 kts | 169° |
| 2026-04-26 20:53 | 45.47150 | -121.91209 | 32865 ft | 518 kts | 169° |
| 2026-04-26 20:54 | 45.40049 | -121.89556 | 32856 ft | 514 kts | 169° |
| 2026-04-26 20:54 | 45.32998 | -121.87919 | 32851 ft | 516 kts | 169° |
| 2026-04-26 20:55 | 45.25957 | -121.86288 | 32854 ft | 513 kts | 169° |
| 2026-04-26 20:55 | 45.18879 | -121.84653 | 32857 ft | 513 kts | 169° |
| 2026-04-26 20:56 | 45.11854 | -121.83034 | 32856 ft | 512 kts | 169° |
| 2026-04-26 20:56 | 45.04842 | -121.81422 | 32851 ft | 514 kts | 169° |
| 2026-04-26 20:57 | 44.97838 | -121.79816 | 32862 ft | 510 kts | 169° |
| 2026-04-26 20:57 | 44.90825 | -121.78212 | 32869 ft | 511 kts | 169° |
| 2026-04-26 20:58 | 44.83820 | -121.76614 | 32857 ft | 508 kts | 169° |
| 2026-04-26 20:58 | 44.76867 | -121.75032 | 32850 ft | 508 kts | 169° |
| 2026-04-26 20:59 | 44.69922 | -121.73455 | 32859 ft | 507 kts | 169° |
| 2026-04-26 20:59 | 44.62943 | -121.71874 | 32854 ft | 507 kts | 169° |
| 2026-04-26 21:00 | 44.56003 | -121.70306 | 32851 ft | 507 kts | 169° |
| 2026-04-26 21:00 | 44.49054 | -121.68740 | 32858 ft | 506 kts | 170° |
| 2026-04-26 21:01 | 44.42150 | -121.67188 | 32852 ft | 504 kts | 170° |
| 2026-04-26 21:01 | 44.35210 | -121.65631 | 32852 ft | 505 kts | 170° |
| 2026-04-26 21:02 | 44.28327 | -121.64062 | 32849 ft | 503 kts | 169° |
| 2026-04-26 21:02 | 44.21402 | -121.62450 | 32848 ft | 503 kts | 169° |
| 2026-04-26 21:03 | 44.14549 | -121.60861 | 32846 ft | 501 kts | 170° |
| 2026-04-26 21:03 | 44.07666 | -121.59270 | 32847 ft | 502 kts | 169° |
| 2026-04-26 21:04 | 44.00806 | -121.57689 | 32837 ft | 501 kts | 169° |
| 2026-04-26 21:04 | 43.93928 | -121.56107 | 32836 ft | 501 kts | 170° |
| 2026-04-26 21:05 | 43.87059 | -121.54532 | 32839 ft | 500 kts | 170° |
| 2026-04-26 21:05 | 43.80222 | -121.52968 | 32846 ft | 499 kts | 170° |
| 2026-04-26 21:06 | 43.73335 | -121.51396 | 32850 ft | 499 kts | 170° |
| 2026-04-26 21:06 | 43.66519 | -121.49844 | 32849 ft | 499 kts | 170° |
| 2026-04-26 21:07 | 43.59644 | -121.48282 | 32854 ft | 499 kts | 170° |
| 2026-04-26 21:07 | 43.52813 | -121.46733 | 32854 ft | 498 kts | 171° |
| 2026-04-26 21:08 | 43.46009 | -121.45195 | 32855 ft | 497 kts | 171° |
| 2026-04-26 21:08 | 43.39129 | -121.43642 | 32853 ft | 497 kts | 171° |
| 2026-04-26 21:09 | 43.32315 | -121.42109 | 32849 ft | 495 kts | 171° |
| 2026-04-26 21:09 | 43.25537 | -121.40586 | 32844 ft | 496 kts | 171° |
| 2026-04-26 21:10 | 43.18705 | -121.39056 | 32846 ft | 496 kts | 171° |
| 2026-04-26 21:10 | 43.11897 | -121.37534 | 32849 ft | 494 kts | 171° |
| 2026-04-26 21:11 | 43.05148 | -121.36028 | 32851 ft | 495 kts | 171° |
| 2026-04-26 21:11 | 42.98325 | -121.34509 | 32848 ft | 494 kts | 172° |
| 2026-04-26 21:12 | 42.91558 | -121.33006 | 32850 ft | 493 kts | 172° |
| 2026-04-26 21:12 | 42.84819 | -121.31513 | 32846 ft | 492 kts | 172° |
| 2026-04-26 21:13 | 42.78050 | -121.30016 | 32852 ft | 493 kts | 172° |
| 2026-04-26 21:13 | 42.71269 | -121.28521 | 32849 ft | 491 kts | 172° |
| 2026-04-26 21:14 | 42.64537 | -121.27039 | 32852 ft | 490 kts | 172° |
| 2026-04-26 21:14 | 42.57796 | -121.25558 | 32858 ft | 491 kts | 172° |
| 2026-04-26 21:15 | 42.51081 | -121.24087 | 32864 ft | 490 kts | 172° |
| 2026-04-26 21:15 | 42.44352 | -121.22616 | 32861 ft | 490 kts | 172° |
| 2026-04-26 21:16 | 42.37646 | -121.21152 | 32856 ft | 489 kts | 172° |
| 2026-04-26 21:16 | 42.30922 | -121.19688 | 32852 ft | 488 kts | 172° |
| 2026-04-26 21:17 | 42.24235 | -121.18236 | 32849 ft | 489 kts | 172° |
| 2026-04-26 21:17 | 42.17551 | -121.16787 | 32851 ft | 487 kts | 172° |
| 2026-04-26 21:18 | 42.10852 | -121.15338 | 32849 ft | 488 kts | 172° |
| 2026-04-26 21:18 | 42.04141 | -121.13889 | 32849 ft | 486 kts | 172° |
| 2026-04-26 21:19 | 41.97457 | -121.12450 | 32852 ft | 487 kts | 172° |
| 2026-04-26 21:19 | 41.90768 | -121.11012 | 32853 ft | 487 kts | 172° |
| 2026-04-26 21:20 | 41.84076 | -121.09576 | 32859 ft | 487 kts | 172° |
| 2026-04-26 21:20 | 41.77377 | -121.08143 | 32862 ft | 487 kts | 172° |
| 2026-04-26 21:21 | 41.70673 | -121.06712 | 32865 ft | 488 kts | 172° |
| 2026-04-26 21:21 | 41.63983 | -121.05286 | 32865 ft | 486 kts | 172° |
| 2026-04-26 21:22 | 41.57310 | -121.03866 | 32865 ft | 486 kts | 172° |
| 2026-04-26 21:22 | 41.50594 | -121.02441 | 32870 ft | 487 kts | 172° |
| 2026-04-26 21:23 | 41.40618 | -121.00329 | 32870 ft | 487 kts | 173° |
| 2026-04-26 21:23 | 41.33907 | -120.98912 | 32864 ft | 486 kts | 173° |
| 2026-04-26 21:24 | 41.27242 | -120.97508 | 32863 ft | 486 kts | 173° |
| 2026-04-26 21:24 | 41.20605 | -120.96113 | 32854 ft | 486 kts | 173° |
| 2026-04-26 21:25 | 41.13916 | -120.94709 | 32857 ft | 486 kts | 173° |
| 2026-04-26 21:25 | 41.07246 | -120.93313 | 32859 ft | 485 kts | 173° |
| 2026-04-26 21:26 | 41.00560 | -120.91937 | 32860 ft | 485 kts | 175° |
| 2026-04-26 21:26 | 40.93866 | -120.91310 | 32861 ft | 484 kts | 179° |
| 2026-04-26 21:27 | 40.87127 | -120.90778 | 32852 ft | 483 kts | 179° |
| 2026-04-26 21:27 | 40.80441 | -120.90247 | 32853 ft | 483 kts | 179° |
| 2026-04-26 21:28 | 40.73743 | -120.89714 | 32848 ft | 483 kts | 179° |
| 2026-04-26 21:28 | 40.66989 | -120.89177 | 32852 ft | 483 kts | 179° |
| 2026-04-26 21:29 | 40.60305 | -120.88646 | 32851 ft | 482 kts | 179° |
| 2026-04-26 21:29 | 40.53644 | -120.88118 | 32849 ft | 483 kts | 179° |
| 2026-04-26 21:30 | 40.46945 | -120.87587 | 32848 ft | 482 kts | 179° |
| 2026-04-26 21:30 | 40.41354 | -120.87145 | 32860 ft | 482 kts | 179° |
| 2026-04-26 21:31 | 40.33560 | -120.86530 | 32881 ft | 482 kts | 179° |
| 2026-04-26 21:31 | 40.26867 | -120.86003 | 32883 ft | 481 kts | 179° |
| 2026-04-26 21:32 | 40.20173 | -120.85477 | 32894 ft | 482 kts | 179° |
| 2026-04-26 21:32 | 40.13484 | -120.84952 | 32895 ft | 481 kts | 179° |
| 2026-04-26 21:33 | 40.06810 | -120.84431 | 32897 ft | 481 kts | 179° |
| 2026-04-26 21:33 | 40.00161 | -120.83910 | 32890 ft | 480 kts | 179° |
| 2026-04-26 21:34 | 39.93470 | -120.83389 | 32897 ft | 481 kts | 179° |
| 2026-04-26 21:34 | 39.86820 | -120.82871 | 32885 ft | 480 kts | 179° |
| 2026-04-26 21:35 | 39.80157 | -120.82354 | 32870 ft | 480 kts | 179° |
| 2026-04-26 21:35 | 39.73473 | -120.81836 | 32862 ft | 480 kts | 179° |
| 2026-04-26 21:36 | 39.67901 | -120.81405 | 32870 ft | 480 kts | 179° |
| 2026-04-26 21:36 | 39.60151 | -120.80806 | 32882 ft | 480 kts | 179° |
| 2026-04-26 21:37 | 39.53467 | -120.80291 | 32891 ft | 480 kts | 180° |
| 2026-04-26 21:37 | 39.46824 | -120.79780 | 32895 ft | 479 kts | 180° |
| 2026-04-26 21:38 | 39.40168 | -120.79269 | 32910 ft | 480 kts | 180° |
| 2026-04-26 21:38 | 39.33505 | -120.78758 | 32911 ft | 478 kts | 180° |
| 2026-04-26 21:39 | 39.26830 | -120.78248 | 32919 ft | 479 kts | 180° |
| 2026-04-26 21:39 | 39.20213 | -120.77743 | 32925 ft | 478 kts | 180° |
| 2026-04-26 21:40 | 39.13561 | -120.77236 | 32927 ft | 478 kts | 180° |
| 2026-04-26 21:40 | 39.06927 | -120.76731 | 32927 ft | 478 kts | 180° |
| 2026-04-26 21:41 | 39.00288 | -120.76228 | 32941 ft | 479 kts | 180° |
| 2026-04-26 21:41 | 38.93665 | -120.75726 | 32944 ft | 477 kts | 181° |
| 2026-04-26 21:42 | 38.87019 | -120.75223 | 32951 ft | 478 kts | 181° |
| 2026-04-26 21:42 | 38.80381 | -120.74722 | 32952 ft | 478 kts | 181° |
| 2026-04-26 21:43 | 38.73745 | -120.74223 | 32950 ft | 478 kts | 181° |
| 2026-04-26 21:43 | 38.67114 | -120.73724 | 32952 ft | 477 kts | 181° |
| 2026-04-26 21:44 | 38.60470 | -120.73225 | 32959 ft | 478 kts | 181° |
| 2026-04-26 21:44 | 38.53861 | -120.72730 | 32958 ft | 478 kts | 181° |
| 2026-04-26 21:45 | 38.47208 | -120.72232 | 32964 ft | 478 kts | 181° |
| 2026-04-26 21:45 | 38.40561 | -120.71736 | 32966 ft | 478 kts | 181° |
| 2026-04-26 21:46 | 38.33874 | -120.71238 | 32972 ft | 478 kts | 181° |
| 2026-04-26 21:46 | 38.27251 | -120.70745 | 32974 ft | 478 kts | 181° |
| 2026-04-26 21:47 | 38.20559 | -120.70248 | 32975 ft | 478 kts | 181° |
| 2026-04-26 21:47 | 38.13954 | -120.69759 | 32978 ft | 479 kts | 181° |
| 2026-04-26 21:48 | 38.07279 | -120.69265 | 32978 ft | 477 kts | 181° |
| 2026-04-26 21:48 | 38.00619 | -120.68774 | 32979 ft | 478 kts | 181° |
| 2026-04-26 21:49 | 37.93986 | -120.68285 | 32981 ft | 478 kts | 181° |
| 2026-04-26 21:49 | 37.87341 | -120.67796 | 32979 ft | 478 kts | 181° |
| 2026-04-26 21:50 | 37.81771 | -120.67387 | 32974 ft | 480 kts | 181° |
| 2026-04-26 21:50 | 37.74041 | -120.66821 | 32977 ft | 478 kts | 181° |
| 2026-04-26 21:51 | 37.67376 | -120.66333 | 32977 ft | 480 kts | 181° |
| 2026-04-26 21:51 | 37.60682 | -120.65844 | 32978 ft | 479 kts | 181° |
| 2026-04-26 21:52 | 37.54055 | -120.65361 | 32976 ft | 480 kts | 181° |
| 2026-04-26 21:52 | 37.47364 | -120.64874 | 32981 ft | 480 kts | 181° |
| 2026-04-26 21:53 | 37.40707 | -120.64390 | 32982 ft | 479 kts | 181° |
| 2026-04-26 21:53 | 37.33989 | -120.63858 | 32976 ft | 482 kts | 177° |
| 2026-04-26 21:54 | 37.27401 | -120.62027 | 32983 ft | 488 kts | 169° |
| 2026-04-26 21:54 | 37.20859 | -120.59888 | 32985 ft | 488 kts | 169° |
| 2026-04-26 21:55 | 37.14265 | -120.57740 | 32985 ft | 487 kts | 169° |
| 2026-04-26 21:55 | 37.07668 | -120.55599 | 32983 ft | 487 kts | 169° |
| 2026-04-26 21:56 | 37.01093 | -120.53470 | 32979 ft | 487 kts | 169° |
| 2026-04-26 21:56 | 36.94561 | -120.51360 | 32978 ft | 487 kts | 169° |
| 2026-04-26 21:57 | 36.87962 | -120.49232 | 32976 ft | 487 kts | 169° |
| 2026-04-26 21:57 | 36.81396 | -120.47118 | 32981 ft | 487 kts | 169° |
| 2026-04-26 21:58 | 36.74813 | -120.45004 | 32980 ft | 487 kts | 169° |
| 2026-04-26 21:58 | 36.68257 | -120.42902 | 32975 ft | 487 kts | 169° |
| 2026-04-26 21:59 | 36.61710 | -120.40807 | 32978 ft | 487 kts | 169° |
| 2026-04-26 21:59 | 36.55121 | -120.38702 | 32981 ft | 487 kts | 169° |
| 2026-04-26 22:00 | 36.48512 | -120.36594 | 32981 ft | 486 kts | 169° |
| 2026-04-26 22:00 | 36.41969 | -120.34511 | 32977 ft | 487 kts | 169° |
| 2026-04-26 22:01 | 36.35386 | -120.32419 | 32983 ft | 487 kts | 169° |
| 2026-04-26 22:01 | 36.28824 | -120.30337 | 32980 ft | 486 kts | 169° |
| 2026-04-26 22:02 | 36.23353 | -120.28604 | 32981 ft | 486 kts | 169° |
| 2026-04-26 22:02 | 36.15727 | -120.26193 | 32975 ft | 486 kts | 169° |
| 2026-04-26 22:03 | 36.09178 | -120.24126 | 32980 ft | 486 kts | 169° |
| 2026-04-26 22:03 | 36.02593 | -120.22051 | 32974 ft | 486 kts | 169° |
| 2026-04-26 22:04 | 35.96047 | -120.19992 | 32982 ft | 486 kts | 169° |
| 2026-04-26 22:04 | 35.89471 | -120.17927 | 32978 ft | 485 kts | 169° |
| 2026-04-26 22:05 | 35.82908 | -120.15870 | 32974 ft | 485 kts | 169° |
| 2026-04-26 22:05 | 35.76379 | -120.13827 | 32982 ft | 486 kts | 169° |
| 2026-04-26 22:06 | 35.69808 | -120.11772 | 32980 ft | 486 kts | 169° |
| 2026-04-26 22:06 | 35.63565 | -120.08493 | 32972 ft | 495 kts | 153° |
| 2026-04-26 22:07 | 35.57703 | -120.04085 | 32982 ft | 494 kts | 152° |
| 2026-04-26 22:07 | 35.52830 | -120.00403 | 32967 ft | 494 kts | 152° |
| 2026-04-26 22:08 | 35.45958 | -119.95226 | 32964 ft | 494 kts | 152° |
| 2026-04-26 22:08 | 35.40103 | -119.90827 | 32979 ft | 494 kts | 152° |
| 2026-04-26 22:09 | 35.34243 | -119.86434 | 32976 ft | 495 kts | 152° |
| 2026-04-26 22:09 | 35.28418 | -119.81968 | 32957 ft | 497 kts | 148° |
| 2026-04-26 22:10 | 35.22892 | -119.76841 | 32891 ft | 493 kts | 146° |
| 2026-04-26 22:10 | 35.20167 | -119.74287 | 32253 ft | 495 kts | 146° |
| 2026-04-26 22:10 | 35.17397 | -119.71697 | 31293 ft | 503 kts | 145° |
| 2026-04-26 22:11 | 35.14618 | -119.69102 | 30449 ft | 506 kts | 145° |
| 2026-04-26 22:11 | 35.11815 | -119.66486 | 29935 ft | 500 kts | 145° |
| 2026-04-26 22:11 | 35.09078 | -119.63933 | 29449 ft | 494 kts | 145° |
| 2026-04-26 22:11 | 35.06362 | -119.61403 | 28930 ft | 489 kts | 145° |
| 2026-04-26 22:12 | 35.03674 | -119.58902 | 28413 ft | 485 kts | 145° |
| 2026-04-26 22:12 | 35.01000 | -119.56417 | 27867 ft | 480 kts | 144° |
| 2026-04-26 22:12 | 34.98366 | -119.53971 | 27341 ft | 476 kts | 145° |
| 2026-04-26 22:12 | 34.95744 | -119.51540 | 26799 ft | 472 kts | 144° |
| 2026-04-26 22:13 | 34.93127 | -119.49113 | 26251 ft | 468 kts | 144° |
| 2026-04-26 22:13 | 34.90564 | -119.46746 | 25721 ft | 464 kts | 145° |
| 2026-04-26 22:13 | 34.87985 | -119.44430 | 25247 ft | 458 kts | 146° |
| 2026-04-26 22:13 | 34.85423 | -119.42142 | 24813 ft | 453 kts | 146° |
| 2026-04-26 22:14 | 34.82887 | -119.39878 | 24355 ft | 448 kts | 145° |
| 2026-04-26 22:14 | 34.80394 | -119.37653 | 23902 ft | 443 kts | 146° |
| 2026-04-26 22:14 | 34.77929 | -119.35454 | 23453 ft | 438 kts | 145° |
| 2026-04-26 22:14 | 34.75470 | -119.33260 | 23005 ft | 433 kts | 146° |
| 2026-04-26 22:15 | 34.73069 | -119.31137 | 22539 ft | 429 kts | 147° |
| 2026-04-26 22:15 | 34.70647 | -119.29023 | 21994 ft | 428 kts | 146° |
| 2026-04-26 22:15 | 34.68193 | -119.26884 | 21459 ft | 426 kts | 146° |
| 2026-04-26 22:15 | 34.65780 | -119.24779 | 20938 ft | 423 kts | 146° |
| 2026-04-26 22:16 | 34.63409 | -119.22722 | 20429 ft | 421 kts | 147° |
| 2026-04-26 22:16 | 34.61035 | -119.20677 | 19922 ft | 418 kts | 147° |
| 2026-04-26 22:16 | 34.58644 | -119.18619 | 19415 ft | 416 kts | 146° |
| 2026-04-26 22:16 | 34.56300 | -119.16602 | 18914 ft | 414 kts | 146° |
| 2026-04-26 22:17 | 34.53980 | -119.14565 | 18484 ft | 409 kts | 146° |
| 2026-04-26 22:17 | 34.51699 | -119.12541 | 18110 ft | 404 kts | 145° |
| 2026-04-26 22:17 | 34.50202 | -119.11212 | 17862 ft | 400 kts | 145° |
| 2026-04-26 22:17 | 34.47227 | -119.08577 | 17352 ft | 394 kts | 145° |
| 2026-04-26 22:18 | 34.45018 | -119.06623 | 16965 ft | 390 kts | 146° |
| 2026-04-26 22:18 | 34.42862 | -119.04728 | 16585 ft | 385 kts | 146° |
| 2026-04-26 22:18 | 34.40703 | -119.02857 | 16209 ft | 380 kts | 146° |
| 2026-04-26 22:18 | 34.38550 | -119.00994 | 15831 ft | 375 kts | 146° |
| 2026-04-26 22:19 | 34.36450 | -118.99178 | 15487 ft | 372 kts | 146° |
| 2026-04-26 22:19 | 34.34336 | -118.97350 | 15092 ft | 370 kts | 146° |
| 2026-04-26 22:19 | 34.32278 | -118.95519 | 14732 ft | 370 kts | 144° |
| 2026-04-26 22:19 | 34.30225 | -118.93645 | 14373 ft | 368 kts | 144° |
| 2026-04-26 22:20 | 34.28182 | -118.91785 | 13988 ft | 367 kts | 144° |
| 2026-04-26 22:20 | 34.26829 | -118.90555 | 13753 ft | 365 kts | 144° |
| 2026-04-26 22:20 | 34.24133 | -118.88097 | 13332 ft | 362 kts | 144° |
| 2026-04-26 22:20 | 34.22139 | -118.86259 | 12946 ft | 359 kts | 144° |
| 2026-04-26 22:21 | 34.20155 | -118.84433 | 12563 ft | 356 kts | 144° |
| 2026-04-26 22:21 | 34.18191 | -118.82629 | 12234 ft | 351 kts | 144° |
| 2026-04-26 22:21 | 34.16263 | -118.80857 | 11975 ft | 344 kts | 144° |
| 2026-04-26 22:21 | 34.14470 | -118.78998 | 11952 ft | 331 kts | 139° |
| 2026-04-26 22:22 | 34.12812 | -118.77128 | 11950 ft | 321 kts | 139° |
| 2026-04-26 22:22 | 34.11192 | -118.75322 | 11950 ft | 313 kts | 140° |
| 2026-04-26 22:22 | 34.09607 | -118.73582 | 11963 ft | 311 kts | 140° |
| 2026-04-26 22:22 | 34.08000 | -118.71831 | 11957 ft | 310 kts | 140° |
| 2026-04-26 22:23 | 34.06395 | -118.70087 | 11954 ft | 309 kts | 140° |
| 2026-04-26 22:23 | 34.04793 | -118.68349 | 11955 ft | 309 kts | 140° |
| 2026-04-26 22:23 | 34.03435 | -118.66343 | 11941 ft | 312 kts | 117° |
| 2026-04-26 22:23 | 34.02793 | -118.63870 | 11962 ft | 314 kts | 99° |
| 2026-04-26 22:24 | 34.02478 | -118.61272 | 11956 ft | 313 kts | 96° |
| 2026-04-26 22:24 | 34.02230 | -118.58652 | 11959 ft | 314 kts | 95° |
| 2026-04-26 22:24 | 34.01989 | -118.56052 | 11957 ft | 313 kts | 95° |
| 2026-04-26 22:24 | 34.01747 | -118.53462 | 11950 ft | 306 kts | 95° |
| 2026-04-26 22:25 | 34.01515 | -118.50994 | 11948 ft | 288 kts | 95° |
| 2026-04-26 22:25 | 34.01294 | -118.48642 | 11954 ft | 279 kts | 95° |
| 2026-04-26 22:25 | 34.01097 | -118.46347 | 11778 ft | 273 kts | 89° |
| 2026-04-26 22:25 | 34.01286 | -118.44070 | 11214 ft | 275 kts | 76° |
| 2026-04-26 22:26 | 34.01671 | -118.41831 | 10781 ft | 270 kts | 75° |
| 2026-04-26 22:26 | 34.02057 | -118.39646 | 10350 ft | 267 kts | 75° |
| 2026-04-26 22:26 | 34.02438 | -118.37456 | 9841 ft | 267 kts | 75° |
| 2026-04-26 22:26 | 34.02811 | -118.35289 | 9279 ft | 271 kts | 77° |
| 2026-04-26 22:27 | 34.03066 | -118.32961 | 8316 ft | 290 kts | 83° |
| 2026-04-26 22:27 | 34.03278 | -118.30549 | 7650 ft | 291 kts | 82° |
| 2026-04-26 22:27 | 34.03513 | -118.28151 | 7194 ft | 284 kts | 81° |
| 2026-04-26 22:27 | 34.03768 | -118.25833 | 6716 ft | 279 kts | 81° |
| 2026-04-26 22:28 | 34.04018 | -118.23576 | 6511 ft | 263 kts | 81° |
| 2026-04-26 22:28 | 34.04258 | -118.21399 | 6016 ft | 259 kts | 81° |
| 2026-04-26 22:28 | 34.04493 | -118.19272 | 5441 ft | 258 kts | 82° |
| 2026-04-26 22:28 | 34.04725 | -118.17149 | 4896 ft | 255 kts | 82° |
| 2026-04-26 22:29 | 34.04956 | -118.15048 | 4347 ft | 253 kts | 82° |
| 2026-04-26 22:29 | 34.05186 | -118.12942 | 3815 ft | 251 kts | 82° |
| 2026-04-26 22:29 | 34.05412 | -118.10870 | 3583 ft | 251 kts | 82° |
| 2026-04-26 22:29 | 34.05637 | -118.08794 | 3552 ft | 250 kts | 82° |
| 2026-04-26 22:30 | 34.05864 | -118.06712 | 3552 ft | 251 kts | 82° |
| 2026-04-26 22:30 | 34.06090 | -118.04633 | 3544 ft | 248 kts | 82° |
| 2026-04-26 22:30 | 34.06044 | -118.02630 | 3528 ft | 237 kts | 109° |
| 2026-04-26 22:30 | 34.05200 | -118.00987 | 3535 ft | 231 kts | 142° |
| 2026-04-26 22:31 | 34.03814 | -118.00050 | 3554 ft | 227 kts | 160° |
| 2026-04-26 22:31 | 34.02359 | -117.99342 | 3548 ft | 225 kts | 161° |
| 2026-04-26 22:31 | 34.00883 | -117.98698 | 3537 ft | 223 kts | 173° |
| 2026-04-26 22:31 | 33.99371 | -117.98865 | 3535 ft | 218 kts | 207° |
| 2026-04-26 22:32 | 33.98082 | -117.99807 | 3538 ft | 216 kts | 225° |
| 2026-04-26 22:32 | 33.97339 | -118.01324 | 3535 ft | 212 kts | 259° |
| 2026-04-26 22:32 | 33.97174 | -118.03070 | 3572 ft | 207 kts | 265° |
| 2026-04-26 22:32 | 33.97065 | -118.04763 | 3546 ft | 197 kts | 265° |
| 2026-04-26 22:33 | 33.96939 | -118.06389 | 3540 ft | 191 kts | 264° |
| 2026-04-26 22:33 | 33.96644 | -118.09540 | 3552 ft | 189 kts | 264° |
| 2026-04-26 22:33 | 33.96490 | -118.11103 | 3554 ft | 188 kts | 264° |
| 2026-04-26 22:34 | 33.96335 | -118.12662 | 3557 ft | 187 kts | 264° |
| 2026-04-26 22:34 | 33.96180 | -118.14214 | 3554 ft | 188 kts | 264° |
| 2026-04-26 22:34 | 33.96024 | -118.15768 | 3551 ft | 185 kts | 264° |
| 2026-04-26 22:34 | 33.95867 | -118.17339 | 3482 ft | 190 kts | 264° |
| 2026-04-26 22:35 | 33.95712 | -118.18874 | 3237 ft | 183 kts | 264° |
| 2026-04-26 22:35 | 33.95563 | -118.20365 | 3014 ft | 174 kts | 263° |
| 2026-04-26 22:35 | 33.95424 | -118.21752 | 2786 ft | 157 kts | 263° |
| 2026-04-26 22:35 | 33.95300 | -118.22980 | 2587 ft | 141 kts | 263° |
| 2026-04-26 22:36 | 33.95189 | -118.24073 | 2400 ft | 123 kts | 263° |
| 2026-04-26 22:36 | 33.95092 | -118.25023 | 2240 ft | 105 kts | 262° |
| 2026-04-26 22:36 | 33.95012 | -118.25812 | 2122 ft | 82 kts | 262° |
| 2026-04-26 22:36 | 33.94960 | -118.26401 | 2014 ft | 61 kts | 262° |
| 2026-04-26 22:37 | 33.94904 | -118.26865 | 1943 ft | 52 kts | 261° |
| 2026-04-26 22:37 | 33.94866 | -118.27280 | 1876 ft | 52 kts | 262° |
| 2026-04-26 22:37 | 33.94809 | -118.27774 | 1799 ft | 68 kts | 262° |
| 2026-04-26 22:37 | 33.94758 | -118.28363 | 1718 ft | 70 kts | 261° |
| 2026-04-26 22:38 | 33.94691 | -118.28934 | 1615 ft | 73 kts | 261° |
| 2026-04-26 22:38 | 33.94635 | -118.29532 | 1501 ft | 68 kts | 262° |
| 2026-04-26 22:38 | 33.94568 | -118.30084 | 1422 ft | 69 kts | 262° |
| 2026-04-26 22:38 | 33.94515 | -118.30662 | 1329 ft | 67 kts | 263° |
| 2026-04-26 22:39 | 33.94457 | -118.31225 | 1265 ft | 68 kts | 261° |
| 2026-04-26 22:39 | 33.94402 | -118.31806 | 1195 ft | 77 kts | 263° |
| 2026-04-26 22:39 | 33.94331 | -118.32437 | 1112 ft | 72 kts | 261° |
| 2026-04-26 22:39 | 33.94282 | -118.33031 | 1059 ft | 77 kts | 263° |
| 2026-04-26 22:40 | 33.94212 | -118.33601 | 945 ft | 56 kts | 260° |
| 2026-04-26 22:40 | 33.94191 | -118.33991 | 832 ft | 46 kts | 261° |
| 2026-04-26 22:40 | 33.94105 | -118.34371 | 771 ft | 51 kts | 263° |
| 2026-04-26 22:40 | 33.94073 | -118.34780 | 654 ft | 58 kts | 265° |
| 2026-04-26 22:41 | 33.94049 | -118.35259 | 559 ft | 51 kts | 263° |
| 2026-04-26 22:41 | 33.93993 | -118.35656 | 512 ft | 45 kts | 263° |
| 2026-04-26 22:41 | 33.93996 | -118.35995 | 489 ft | 38 kts | 259° |
| 2026-04-26 22:41 | 33.93932 | -118.36303 | 412 ft | 36 kts | 262° |
| 2026-04-26 22:42 | 33.93902 | -118.36568 | 324 ft | 32 kts | 263° |